Time;durP1;ratioP1;P1;durP2;ratioP2;P2;SDS_P1;SDS_P2;PMS_P1;PMS_P2;Temp;Humidity;BMP_temperature;BMP_pressure;BME280_temperature;BME280_humidity;BME280_pressure;Samples;Min_cycle;Max_cycle;Signal;HPM_P1;HPM_P2
2023/12/23 00:00:04;;;;;;;20.38;2.35;;;5.60;99.90;;;;;;5093096;28;20078;-72
2023/12/23 00:02:29;;;;;;;9.60;3.33;;;5.60;99.90;;;;;;5076353;28;20039;-71
2023/12/23 00:04:55;;;;;;;20.52;3.55;;;5.70;99.90;;;;;;5092963;28;20128;-71
2023/12/23 00:07:20;;;;;;;14.43;3.25;;;5.60;99.90;;;;;;5092928;28;20072;-71
2023/12/23 00:09:46;;;;;;;13.70;2.65;;;5.60;99.90;;;;;;5093980;28;20047;-71
2023/12/23 00:12:11;;;;;;;16.80;3.25;;;5.60;99.90;;;;;;5092946;28;20067;-71
2023/12/23 00:14:37;;;;;;;15.60;2.38;;;5.60;99.90;;;;;;5092758;28;20051;-71
2023/12/23 00:17:03;;;;;;;14.40;2.47;;;5.60;99.90;;;;;;5075673;28;20123;-71
2023/12/23 00:19:29;;;;;;;14.95;2.65;;;5.50;99.90;;;;;;5092659;28;20040;-71
2023/12/23 00:21:55;;;;;;;16.33;3.05;;;5.60;99.90;;;;;;5092556;28;20047;-72
2023/12/23 00:24:21;;;;;;;7.32;2.72;;;5.50;99.90;;;;;;5075607;28;20032;-71
2023/12/23 00:26:46;;;;;;;8.57;2.03;;;5.50;99.90;;;;;;5092188;28;20040;-71
2023/12/23 00:29:12;;;;;;;8.45;1.83;;;5.50;99.90;;;;;;5093945;28;20035;-71
2023/12/23 00:31:38;;;;;;;11.10;2.15;;;5.70;99.90;;;;;;5093720;28;20036;-72
2023/12/23 00:34:04;;;;;;;10.68;2.00;;;5.50;99.90;;;;;;5092407;28;20036;-71
2023/12/23 00:36:30;;;;;;;7.88;2.55;;;5.60;99.90;;;;;;5093565;28;20051;-71
2023/12/23 00:38:55;;;;;;;16.02;2.15;;;5.50;99.90;;;;;;5093281;28;20028;-72
2023/12/23 00:41:22;;;;;;;11.32;2.25;;;5.50;99.90;;;;;;5092079;28;20126;-71
2023/12/23 00:43:48;;;;;;;11.55;2.45;;;5.50;99.90;;;;;;5093433;28;20050;-71
2023/12/23 00:46:14;;;;;;;12.15;2.33;;;5.40;99.90;;;;;;5092063;28;20044;-71
2023/12/23 00:48:40;;;;;;;16.75;2.72;;;5.40;99.90;;;;;;5093447;28;20066;-71
2023/12/23 00:51:05;;;;;;;17.83;3.58;;;5.50;99.90;;;;;;5075269;28;20044;-72
2023/12/23 00:53:31;;;;;;;19.30;3.05;;;5.50;99.90;;;;;;5093242;28;20051;-71
2023/12/23 00:55:57;;;;;;;15.88;2.83;;;5.40;99.90;;;;;;5092051;28;20036;-71
2023/12/23 00:58:22;;;;;;;10.32;2.72;;;5.50;99.90;;;;;;5093205;28;20036;-71
2023/12/23 01:00:48;;;;;;;19.42;4.00;;;5.60;99.90;;;;;;5093184;28;20040;-71
2023/12/23 01:03:14;;;;;;;17.77;4.38;;;5.50;99.90;;;;;;5091859;28;20048;-71
2023/12/23 01:05:39;;;;;;;18.38;2.55;;;5.60;99.90;;;;;;5091863;28;20040;-71
2023/12/23 01:08:05;;;;;;;20.45;4.05;;;5.70;99.90;;;;;;5091619;28;20407;-71
2023/12/23 01:10:30;;;;;;;19.05;2.90;;;5.70;99.90;;;;;;5092042;28;20090;-71
2023/12/23 01:12:56;;;;;;;19.88;3.53;;;5.80;99.90;;;;;;5091786;28;20502;-71
2023/12/23 01:15:22;;;;;;;16.38;3.50;;;5.80;99.90;;;;;;5092027;28;20035;-71
2023/12/23 01:17:47;;;;;;;13.05;2.97;;;5.80;99.90;;;;;;5091534;28;20075;-71
2023/12/23 01:20:13;;;;;;;13.68;2.90;;;5.70;99.90;;;;;;5091699;28;20047;-72
2023/12/23 01:22:38;;;;;;;21.27;3.75;;;5.70;99.90;;;;;;5091482;28;20039;-72
2023/12/23 01:25:04;;;;;;;12.93;3.63;;;5.70;99.90;;;;;;5091591;28;20032;-72
2023/12/23 01:27:30;;;;;;;10.25;2.92;;;5.80;99.90;;;;;;5091313;28;20044;-72
2023/12/23 01:29:55;;;;;;;10.43;4.47;;;5.70;99.90;;;;;;5091444;28;20043;-71
2023/12/23 01:32:21;;;;;;;13.65;3.15;;;5.60;99.90;;;;;;5091396;28;20033;-72
2023/12/23 01:34:47;;;;;;;17.67;3.25;;;5.60;99.90;;;;;;5092685;28;20067;-72
2023/12/23 01:37:13;;;;;;;13.25;2.90;;;5.60;99.90;;;;;;5091943;28;20093;-71
2023/12/23 01:39:39;;;;;;;17.05;3.33;;;5.70;99.90;;;;;;5091587;28;20040;-72
2023/12/23 01:42:05;;;;;;;19.50;2.78;;;5.50;99.90;;;;;;5091402;28;20491;-71
2023/12/23 01:44:30;;;;;;;19.90;4.07;;;5.70;99.90;;;;;;5092648;28;20044;-72
2023/12/23 01:46:58;;;;;;;14.95;2.38;;;5.60;99.90;;;;;;5092332;28;20040;-72
2023/12/23 01:49:25;;;;;;;15.43;2.85;;;5.70;99.90;;;;;;5092333;28;20448;-72
2023/12/23 01:51:52;;;;;;;16.63;2.10;;;5.70;99.90;;;;;;5092194;28;20048;-71
2023/12/23 01:54:19;;;;;;;13.43;2.83;;;5.60;99.90;;;;;;5092639;28;20044;-71
2023/12/23 01:56:46;;;;;;;14.32;2.35;;;5.80;99.90;;;;;;5091058;28;20075;-71
2023/12/23 01:59:12;;;;;;;8.07;2.40;;;5.80;99.90;;;;;;5092440;28;20115;-71
2023/12/23 02:01:40;;;;;;;14.00;3.55;;;5.80;99.90;;;;;;5091234;28;20502;-71
2023/12/23 02:04:05;;;;;;;15.30;2.60;;;5.90;99.90;;;;;;5091308;28;20125;-71
2023/12/23 02:06:31;;;;;;;14.25;2.92;;;5.80;99.90;;;;;;5090792;28;20126;-71
2023/12/23 02:08:57;;;;;;;16.98;2.67;;;5.90;99.90;;;;;;5092151;28;20075;-71
2023/12/23 02:12:07;;;;;;;15.20;3.67;;;6.00;99.90;;;;;;5090706;28;20050;-71
2023/12/23 02:14:47;;;;;;;15.55;3.95;;;5.90;99.90;;;;;;5075346;28;20048;-71
2023/12/23 02:17:13;;;;;;;11.50;2.67;;;6.00;99.90;;;;;;5090590;28;20068;-71
2023/12/23 02:19:38;;;;;;;6.78;1.83;;;6.00;99.90;;;;;;5090721;28;20044;-71
2023/12/23 02:22:04;;;;;;;11.00;1.88;;;6.10;99.90;;;;;;5092024;28;20120;-71
2023/12/23 02:24:30;;;;;;;6.90;1.67;;;6.10;99.90;;;;;;5073901;28;20040;-71
2023/12/23 02:27:04;;;;;;;7.25;1.63;;;6.10;99.90;;;;;;5090405;28;20032;-71
2023/12/23 02:29:31;;;;;;;9.00;2.47;;;6.10;99.90;;;;;;5090680;28;20032;-71
2023/12/23 02:31:58;;;;;;;12.32;2.30;;;6.10;99.90;;;;;;5090485;28;20036;-71
2023/12/23 02:34:24;;;;;;;10.07;2.95;;;6.10;99.90;;;;;;5090754;28;20086;-71
2023/12/23 02:36:50;;;;;;;9.63;3.15;;;6.10;99.90;;;;;;5090327;28;20047;-71
2023/12/23 02:39:15;;;;;;;13.50;1.80;;;6.10;99.90;;;;;;5091805;28;20032;-71
2023/12/23 02:41:41;;;;;;;15.07;2.63;;;6.20;99.90;;;;;;5116325;22;20036;-71
2023/12/23 02:44:07;;;;;;;13.85;1.80;;;6.00;99.90;;;;;;5069310;28;20032;-71
2023/12/23 02:46:32;;;;;;;20.23;5.25;;;6.00;99.90;;;;;;5053065;28;20495;-72
2023/12/23 02:48:59;;;;;;;8.73;3.75;;;6.00;99.90;;;;;;5054952;28;20036;-72
2023/12/23 02:51:25;;;;;;;20.10;2.70;;;6.00;99.90;;;;;;5056962;28;20050;-71
2023/12/23 02:53:51;;;;;;;8.55;2.88;;;6.10;99.90;;;;;;5057445;28;20032;-72
2023/12/23 02:56:16;;;;;;;13.80;2.78;;;6.00;99.90;;;;;;5057289;28;20040;-72
2023/12/23 02:58:42;;;;;;;9.73;1.92;;;5.90;99.90;;;;;;5075093;28;20091;-72
2023/12/23 03:01:08;;;;;;;10.48;2.30;;;6.10;99.90;;;;;;5057419;28;20051;-72
2023/12/23 03:03:34;;;;;;;9.63;1.88;;;6.00;99.90;;;;;;5057279;28;20055;-72
2023/12/23 03:06:00;;;;;;;11.05;2.60;;;6.00;99.90;;;;;;5057089;28;20503;-71
2023/12/23 03:08:26;;;;;;;10.57;2.33;;;5.90;99.90;;;;;;5056869;28;20044;-71
2023/12/23 03:10:51;;;;;;;8.35;2.10;;;6.00;99.90;;;;;;5057071;28;20045;-71
2023/12/23 03:13:17;;;;;;;7.47;1.27;;;6.00;99.90;;;;;;5057139;28;20119;-72
2023/12/23 03:15:42;;;;;;;10.93;2.08;;;6.10;99.90;;;;;;5057112;28;20442;-71
2023/12/23 03:18:08;;;;;;;4.93;1.30;;;6.00;99.90;;;;;;5056857;28;20036;-71
2023/12/23 03:20:34;;;;;;;11.90;1.60;;;5.80;99.90;;;;;;5057046;28;20044;-71
2023/12/23 03:22:59;;;;;;;9.10;1.45;;;6.00;99.90;;;;;;5074839;28;20051;-72
2023/12/23 03:25:25;;;;;;;12.88;1.73;;;6.00;99.90;;;;;;5074780;28;20072;-71
2023/12/23 03:27:51;;;;;;;9.93;1.60;;;5.90;99.90;;;;;;5056599;28;20044;-72
2023/12/23 03:30:16;;;;;;;8.05;2.10;;;6.00;99.90;;;;;;5056834;28;20612;-71
2023/12/23 03:32:43;;;;;;;10.27;1.50;;;5.80;99.90;;;;;;5040139;28;20044;-71
2023/12/23 03:35:09;;;;;;;11.32;1.88;;;6.00;99.90;;;;;;5056693;28;20036;-71
2023/12/23 03:37:34;;;;;;;20.13;2.20;;;5.70;99.90;;;;;;5039879;28;20537;-72
2023/12/23 03:40:00;;;;;;;9.68;2.70;;;5.80;99.90;;;;;;5074519;28;20036;-71
2023/12/23 03:42:26;;;;;;;12.40;1.55;;;6.00;99.90;;;;;;5056458;28;20043;-71
2023/12/23 03:44:51;;;;;;;8.73;2.55;;;5.80;99.90;;;;;;5040150;28;20037;-71
2023/12/23 03:47:17;;;;;;;8.70;2.95;;;5.80;99.90;;;;;;5056744;28;20042;-71
2023/12/23 03:49:42;;;;;;;9.07;2.05;;;5.90;99.90;;;;;;5056689;28;20488;-71
2023/12/23 03:52:08;;;;;;;11.75;1.33;;;5.70;99.90;;;;;;5074607;28;20124;-72
2023/12/23 03:54:34;;;;;;;5.78;1.45;;;6.00;99.90;;;;;;5074520;28;20041;-71
2023/12/23 03:56:59;;;;;;;8.55;1.77;;;5.70;99.90;;;;;;5056355;28;20041;-71
2023/12/23 03:59:25;;;;;;;10.60;1.67;;;5.90;99.90;;;;;;5074196;28;20131;-70
2023/12/23 04:01:50;;;;;;;6.63;1.23;;;5.70;99.90;;;;;;5056533;28;20042;-70
2023/12/23 04:04:16;;;;;;;4.78;1.05;;;5.90;99.90;;;;;;5056297;28;20036;-69
2023/12/23 04:06:42;;;;;;;3.00;0.95;;;5.90;99.90;;;;;;5056022;28;20094;-69
2023/12/23 04:09:09;;;;;;;2.78;0.98;;;5.60;99.90;;;;;;5039450;28;20496;-69
2023/12/23 04:11:37;;;;;;;8.98;2.30;;;5.70;99.90;;;;;;5055937;28;20044;-69
2023/12/23 04:14:03;;;;;;;5.10;1.15;;;5.70;99.90;;;;;;5074146;28;20028;-69
2023/12/23 04:16:29;;;;;;;5.07;1.70;;;5.90;99.90;;;;;;5055789;28;20043;-69
2023/12/23 04:18:55;;;;;;;7.60;1.60;;;5.50;99.90;;;;;;5073805;28;20029;-70
2023/12/23 04:21:20;;;;;;;12.45;1.83;;;5.80;99.90;;;;;;5056049;28;20085;-69
2023/12/23 04:23:46;;;;;;;8.13;1.10;;;5.70;99.90;;;;;;5055731;28;20040;-72
2023/12/23 04:26:14;;;;;;;8.77;1.65;;;5.50;99.90;;;;;;5055653;28;20127;-72
2023/12/23 04:28:39;;;;;;;5.18;1.42;;;5.70;99.90;;;;;;5055614;28;20044;-71
2023/12/23 04:31:06;;;;;;;5.60;0.93;;;5.50;99.90;;;;;;5055594;28;20037;-72
2023/12/23 04:33:31;;;;;;;6.07;1.52;;;5.80;99.90;;;;;;5055611;28;20044;-70
2023/12/23 04:35:57;;;;;;;7.90;1.13;;;5.80;99.90;;;;;;5055505;28;20053;-70
2023/12/23 04:38:23;;;;;;;3.03;0.90;;;5.90;99.90;;;;;;5073265;28;20036;-70
2023/12/23 04:40:49;;;;;;;8.07;2.15;;;5.50;99.90;;;;;;5073766;28;20047;-69
2023/12/23 04:43:14;;;;;;;6.95;1.17;;;5.50;99.90;;;;;;5055341;28;20115;-71
2023/12/23 04:45:40;;;;;;;6.28;2.03;;;5.60;99.90;;;;;;5055445;28;20040;-72
2023/12/23 04:48:06;;;;;;;5.80;0.88;;;5.50;99.90;;;;;;5055235;28;20611;-71
2023/12/23 04:50:31;;;;;;;3.05;0.82;;;5.80;99.90;;;;;;5055206;28;20127;-71
2023/12/23 04:52:57;;;;;;;4.15;0.80;;;5.60;99.90;;;;;;5073132;28;20068;-71
2023/12/23 04:55:22;;;;;;;10.27;1.23;;;5.60;99.90;;;;;;5055434;28;20116;-71
2023/12/23 04:57:48;;;;;;;6.72;0.80;;;5.80;99.90;;;;;;5054992;28;20036;-71
2023/12/23 05:00:14;;;;;;;9.70;1.05;;;5.70;99.90;;;;;;5073279;28;20036;-71
2023/12/23 05:02:40;;;;;;;4.93;1.17;;;5.80;99.90;;;;;;5055135;28;20072;-71
2023/12/23 05:05:06;;;;;;;4.93;1.40;;;5.90;99.90;;;;;;5055037;28;20067;-71
2023/12/23 05:07:32;;;;;;;5.13;1.25;;;5.60;99.90;;;;;;5054763;28;20032;-71
2023/12/23 05:09:58;;;;;;;4.35;1.10;;;5.80;99.90;;;;;;5055128;28;20040;-72
2023/12/23 05:12:24;;;;;;;3.00;0.93;;;5.80;99.90;;;;;;5054319;28;20514;-71
2023/12/23 05:14:51;;;;;;;12.10;1.70;;;5.90;99.90;;;;;;5055131;28;20045;-71
2023/12/23 05:17:16;;;;;;;4.07;0.82;;;5.90;99.90;;;;;;5054930;28;20449;-71
2023/12/23 05:19:42;;;;;;;4.55;0.57;;;5.80;99.90;;;;;;5054728;28;20032;-71
2023/12/23 05:22:08;;;;;;;6.25;0.73;;;5.90;99.90;;;;;;5054902;28;20033;-71
2023/12/23 05:24:37;;;;;;;4.10;0.98;;;6.10;99.90;;;;;;5054653;28;20162;-71
2023/12/23 05:27:03;;;;;;;4.70;1.02;;;6.00;99.90;;;;;;5072279;28;20032;-71
2023/12/23 05:29:29;;;;;;;6.97;1.10;;;5.90;99.90;;;;;;5072638;28;20068;-71
2023/12/23 05:31:55;;;;;;;2.83;0.70;;;6.10;99.90;;;;;;5054433;28;20068;-71
2023/12/23 05:34:20;;;;;;;4.63;0.70;;;5.90;99.90;;;;;;5054767;28;20075;-71
2023/12/23 05:36:46;;;;;;;5.95;1.05;;;5.70;99.90;;;;;;5054138;28;20033;-71
2023/12/23 05:39:11;;;;;;;3.72;1.50;;;6.10;99.90;;;;;;5054760;28;20098;-72
2023/12/23 05:41:37;;;;;;;4.07;0.70;;;5.90;99.90;;;;;;5054395;28;20040;-71
2023/12/23 05:44:03;;;;;;;2.67;0.70;;;5.80;99.90;;;;;;5054292;28;20047;-71
2023/12/23 05:46:28;;;;;;;4.22;1.10;;;6.00;99.90;;;;;;5054188;28;20045;-71
2023/12/23 05:48:54;;;;;;;2.17;0.95;;;6.00;99.90;;;;;;5054149;28;20044;-71
2023/12/23 05:51:19;;;;;;;11.40;2.08;;;5.70;99.90;;;;;;5054018;28;20476;-71
2023/12/23 05:53:45;;;;;;;2.63;0.90;;;5.90;99.90;;;;;;5054376;28;20032;-70
2023/12/23 05:56:11;;;;;;;4.65;1.20;;;5.80;99.90;;;;;;5054080;28;20496;-71
2023/12/23 05:58:36;;;;;;;5.50;0.90;;;5.70;99.90;;;;;;5054275;28;20044;-71
2023/12/23 06:01:02;;;;;;;3.55;0.88;;;5.90;99.90;;;;;;5054113;28;20041;-71
2023/12/23 06:03:28;;;;;;;8.18;1.45;;;5.80;99.90;;;;;;5053935;28;20055;-71
2023/12/23 06:05:54;;;;;;;3.85;0.40;;;5.80;99.90;;;;;;5053799;28;20040;-71
2023/12/23 06:08:19;;;;;;;5.32;0.63;;;5.90;99.90;;;;;;5053895;28;20040;-71
2023/12/23 06:10:45;;;;;;;4.00;0.70;;;6.00;99.90;;;;;;5054153;28;20608;-71
2023/12/23 06:13:11;;;;;;;4.93;0.82;;;5.70;99.90;;;;;;5053912;28;20040;-71
2023/12/23 06:15:36;;;;;;;3.17;0.77;;;5.70;99.90;;;;;;5053852;28;20115;-71
2023/12/23 06:18:02;;;;;;;7.05;1.88;;;5.80;99.90;;;;;;5053590;28;20473;-71
2023/12/23 06:20:28;;;;;;;2.95;1.15;;;5.60;99.90;;;;;;5037356;28;20051;-71
2023/12/23 06:22:53;;;;;;;1.60;0.50;;;5.60;99.90;;;;;;5053624;28;20123;-71
2023/12/23 06:25:19;;;;;;;2.88;0.52;;;5.70;99.90;;;;;;5054101;28;20084;-71
2023/12/23 06:27:45;;;;;;;4.10;1.02;;;5.60;99.90;;;;;;5053732;28;20519;-71
2023/12/23 06:30:11;;;;;;;1.70;0.50;;;5.60;99.90;;;;;;5037126;28;20040;-71
2023/12/23 06:32:37;;;;;;;3.65;0.60;;;5.80;99.90;;;;;;5054049;28;20041;-72
2023/12/23 06:35:03;;;;;;;2.63;0.40;;;5.80;99.90;;;;;;5053623;28;20500;-71
2023/12/23 06:37:29;;;;;;;3.88;0.73;;;5.50;99.90;;;;;;5053386;28;20083;-71
2023/12/23 06:39:54;;;;;;;2.85;0.43;;;5.60;99.90;;;;;;5053625;28;20067;-72
2023/12/23 06:42:20;;;;;;;4.43;0.57;;;5.40;99.90;;;;;;5053342;28;20085;-70
2023/12/23 06:44:46;;;;;;;1.15;0.45;;;5.40;99.90;;;;;;5053508;28;20047;-70
2023/12/23 06:47:11;;;;;;;1.67;0.47;;;5.50;99.90;;;;;;5053239;28;20037;-70
2023/12/23 06:49:37;;;;;;;2.78;0.60;;;5.50;99.90;;;;;;5053676;28;20043;-70
2023/12/23 06:52:03;;;;;;;4.47;0.35;;;5.60;99.90;;;;;;5036774;28;20483;-70
2023/12/23 06:54:29;;;;;;;3.00;0.52;;;5.50;99.90;;;;;;5052792;28;20419;-71
2023/12/23 06:56:54;;;;;;;1.33;0.57;;;5.40;99.90;;;;;;5053075;28;20033;-70
2023/12/23 06:59:20;;;;;;;2.47;0.50;;;5.60;99.90;;;;;;5053309;28;20047;-70
2023/12/23 07:01:45;;;;;;;1.95;0.70;;;5.70;99.90;;;;;;5053236;28;20067;-70
2023/12/23 07:04:11;;;;;;;4.65;0.80;;;5.70;99.90;;;;;;5071067;28;20040;-70
2023/12/23 07:06:37;;;;;;;1.92;0.60;;;5.50;99.90;;;;;;5053137;28;20040;-70
2023/12/23 07:09:03;;;;;;;2.63;0.73;;;5.40;99.90;;;;;;5053525;28;20040;-71
2023/12/23 07:11:28;;;;;;;2.55;0.30;;;5.60;99.90;;;;;;5053375;28;20036;-71
2023/12/23 07:13:54;;;;;;;3.50;1.20;;;5.50;99.90;;;;;;5053141;28;20039;-70
2023/12/23 07:16:19;;;;;;;4.00;0.63;;;5.60;99.90;;;;;;5053176;28;20457;-70
2023/12/23 07:18:45;;;;;;;2.22;0.55;;;5.60;99.90;;;;;;5052975;28;20066;-70
2023/12/23 07:21:12;;;;;;;1.73;0.60;;;5.40;99.90;;;;;;5071002;28;20042;-71
2023/12/23 07:23:38;;;;;;;5.28;0.50;;;5.30;99.90;;;;;;5033972;28;20076;-70
2023/12/23 07:26:04;;;;;;;2.47;0.88;;;5.50;99.90;;;;;;5071020;28;20071;-71
2023/12/23 07:28:30;;;;;;;2.15;0.30;;;5.60;99.90;;;;;;5070975;28;20044;-70
2023/12/23 07:30:56;;;;;;;1.88;0.47;;;5.50;99.90;;;;;;5053252;28;20041;-70
2023/12/23 07:33:22;;;;;;;1.23;0.57;;;5.40;99.90;;;;;;5069590;28;20037;-70
2023/12/23 07:35:48;;;;;;;5.97;0.52;;;5.60;99.90;;;;;;5055797;28;20072;-70
2023/12/23 07:38:13;;;;;;;1.52;0.38;;;5.40;99.90;;;;;;5056818;28;20565;-71
2023/12/23 07:40:40;;;;;;;2.15;0.52;;;5.70;99.90;;;;;;5056974;28;20068;-71
2023/12/23 07:43:06;;;;;;;1.95;0.45;;;5.50;99.90;;;;;;5040050;28;20131;-71
2023/12/23 07:45:32;;;;;;;2.53;0.50;;;5.80;99.90;;;;;;5056582;28;20522;-70
2023/12/23 07:47:57;;;;;;;0.57;0.40;;;5.70;99.90;;;;;;5056369;28;20110;-70
2023/12/23 07:50:23;;;;;;;1.23;0.40;;;5.80;99.90;;;;;;5056680;28;20525;-71
2023/12/23 07:52:49;;;;;;;1.13;0.50;;;5.60;99.90;;;;;;5056645;28;20098;-71
2023/12/23 07:55:15;;;;;;;2.83;0.70;;;5.70;99.90;;;;;;5056394;28;20537;-71
2023/12/23 07:57:42;;;;;;;1.60;0.60;;;5.70;99.90;;;;;;5056104;28;20097;-70
2023/12/23 08:00:09;;;;;;;1.55;0.70;;;5.90;99.90;;;;;;5056353;28;20040;-70
2023/12/23 08:02:35;;;;;;;2.25;0.80;;;5.60;99.90;;;;;;5074067;28;20046;-70
2023/12/23 08:05:02;;;;;;;3.38;0.88;;;5.70;99.90;;;;;;5056502;28;20127;-70
2023/12/23 08:07:27;;;;;;;3.25;1.98;;;5.40;99.90;;;;;;5055581;28;20032;-70
2023/12/23 08:09:53;;;;;;;2.58;0.95;;;5.70;99.90;;;;;;5055776;28;20400;-70
2023/12/23 08:12:19;;;;;;;1.73;0.68;;;5.60;99.90;;;;;;5073998;28;20044;-70
2023/12/23 08:14:44;;;;;;;1.20;0.68;;;5.60;99.90;;;;;;5074150;28;20492;-70
2023/12/23 08:17:11;;;;;;;1.63;1.10;;;5.70;99.90;;;;;;5073683;28;20047;-70
2023/12/23 08:19:37;;;;;;;0.65;0.60;;;5.60;99.90;;;;;;5056081;28;20041;-70
2023/12/23 08:22:03;;;;;;;2.25;0.73;;;5.60;99.90;;;;;;5039345;28;20048;-70
2023/12/23 08:24:29;;;;;;;1.80;0.80;;;5.80;99.90;;;;;;5055890;28;20044;-70
2023/12/23 08:26:59;;;;;;;1.52;0.75;;;5.90;99.90;;;;;;5055574;28;20086;-70
2023/12/23 08:29:25;;;;;;;0.95;0.40;;;5.90;99.90;;;;;;5055931;28;20082;-70
2023/12/23 08:31:51;;;;;;;0.57;0.43;;;5.70;99.90;;;;;;5055472;28;20041;-70
2023/12/23 08:34:18;;;;;;;3.95;0.30;;;5.90;99.90;;;;;;5055427;28;20040;-70
2023/12/23 08:36:44;;;;;;;0.80;0.80;;;6.00;99.90;;;;;;5073608;28;20082;-70
2023/12/23 08:39:10;;;;;;;1.80;0.50;;;5.80;99.90;;;;;;5073626;28;20119;-70
2023/12/23 08:41:35;;;;;;;0.77;0.43;;;5.80;99.90;;;;;;5073650;28;20051;-69
2023/12/23 08:44:04;;;;;;;1.02;0.50;;;5.90;99.90;;;;;;5079636;22;20115;-71
2023/12/23 08:46:30;;;;;;;2.63;0.65;;;5.80;99.90;;;;;;5051858;28;20041;-71
2023/12/23 08:48:57;;;;;;;0.85;0.50;;;5.90;99.90;;;;;;5053402;28;20123;-71
2023/12/23 08:51:22;;;;;;;0.93;0.57;;;5.90;99.90;;;;;;5052715;28;20037;-71
2023/12/23 08:53:48;;;;;;;1.73;0.60;;;5.90;99.90;;;;;;5053252;28;20044;-71
2023/12/23 08:56:14;;;;;;;1.95;0.70;;;5.70;99.90;;;;;;5035551;28;20124;-71
2023/12/23 08:58:39;;;;;;;1.55;0.90;;;5.80;99.90;;;;;;5052976;28;20029;-71
2023/12/23 09:01:05;;;;;;;1.45;0.88;;;5.80;99.90;;;;;;5052967;28;20076;-71
2023/12/23 09:03:31;;;;;;;4.75;1.05;;;5.70;99.90;;;;;;5053018;28;20485;-71
2023/12/23 09:05:58;;;;;;;1.38;0.80;;;5.80;99.90;;;;;;5053019;28;20041;-71
2023/12/23 09:08:24;;;;;;;2.80;1.27;;;5.90;99.90;;;;;;5053025;28;20087;-71
2023/12/23 09:10:50;;;;;;;1.27;0.77;;;5.90;99.90;;;;;;5052874;28;20138;-71
2023/12/23 09:13:16;;;;;;;1.30;1.10;;;5.80;99.90;;;;;;5052670;28;20508;-70
2023/12/23 09:15:41;;;;;;;1.70;1.40;;;5.90;99.90;;;;;;5052919;28;20116;-71
2023/12/23 09:18:07;;;;;;;1.92;1.80;;;6.00;99.90;;;;;;5052662;28;20037;-71
2023/12/23 09:20:33;;;;;;;2.17;1.48;;;5.80;99.90;;;;;;5034797;28;20096;-71
2023/12/23 09:22:58;;;;;;;2.30;1.50;;;6.10;99.90;;;;;;5034596;28;20099;-71
2023/12/23 09:25:24;;;;;;;6.43;2.50;;;5.80;99.90;;;;;;5034870;28;20045;-70
2023/12/23 09:27:50;;;;;;;3.20;2.00;;;6.10;99.90;;;;;;5052154;28;20112;-71
2023/12/23 09:30:15;;;;;;;2.90;1.60;;;5.80;99.90;;;;;;5034595;28;20481;-71
2023/12/23 09:32:41;;;;;;;3.47;1.92;;;6.10;99.90;;;;;;5052537;28;20029;-71
2023/12/23 09:35:07;;;;;;;2.45;1.73;;;6.10;99.90;;;;;;5034372;28;20111;-71
2023/12/23 09:37:32;;;;;;;2.72;1.60;;;6.00;99.90;;;;;;5034277;28;20086;-71
2023/12/23 09:40:01;;;;;;;2.95;1.67;;;6.00;99.90;;;;;;5052431;28;20138;-71
2023/12/23 09:42:31;;;;;;;0.93;0.70;;;6.00;99.90;;;;;;5051954;28;20516;-71
2023/12/23 09:44:57;;;;;;;0.88;0.75;;;6.00;99.90;;;;;;5034530;28;20149;-71
2023/12/23 09:47:22;;;;;;;1.10;0.63;;;6.00;99.90;;;;;;5031363;28;20125;-71
2023/12/23 09:49:48;;;;;;;2.35;0.60;;;6.20;99.90;;;;;;5033683;28;20485;-71
2023/12/23 09:52:14;;;;;;;1.80;0.88;;;5.90;99.90;;;;;;5051490;28;20044;-71
2023/12/23 09:54:50;;;;;;;5.03;0.77;;;6.10;99.90;;;;;;5051659;28;20065;-71
2023/12/23 09:57:17;;;;;;;1.15;0.65;;;5.90;99.90;;;;;;5030957;28;20055;-71
2023/12/23 09:59:42;;;;;;;3.08;0.80;;;5.90;99.90;;;;;;5033829;28;20060;-71
2023/12/23 10:02:08;;;;;;;0.95;0.60;;;6.00;99.90;;;;;;5052074;28;20492;-71
2023/12/23 10:04:34;;;;;;;1.08;0.55;;;6.30;99.90;;;;;;5034450;28;20037;-72
2023/12/23 10:06:59;;;;;;;0.70;0.40;;;6.20;99.90;;;;;;5034033;28;20128;-70
2023/12/23 10:09:29;;;;;;;1.10;0.50;;;5.90;99.90;;;;;;5051924;28;20041;-71
2023/12/23 10:11:55;;;;;;;7.57;3.42;;;6.20;99.90;;;;;;5051781;28;20558;-71
2023/12/23 10:14:22;;;;;;;1.70;0.88;;;6.10;99.90;;;;;;5051786;28;20033;-71
2023/12/23 10:16:47;;;;;;;3.33;1.08;;;6.10;99.90;;;;;;5051671;28;20037;-70
2023/12/23 10:19:13;;;;;;;1.02;0.50;;;6.20;99.90;;;;;;5051738;28;20121;-71
2023/12/23 10:21:41;;;;;;;0.40;0.22;;;6.00;99.90;;;;;;5033797;28;20045;-71
2023/12/23 10:24:07;;;;;;;1.63;0.57;;;6.20;99.90;;;;;;5033963;28;20036;-71
2023/12/23 10:26:34;;;;;;;1.15;0.40;;;5.90;99.90;;;;;;5051807;28;20484;-71
2023/12/23 10:29:03;;;;;;;0.40;0.30;;;6.20;99.90;;;;;;5051676;28;20037;-70
2023/12/23 10:31:32;;;;;;;1.45;0.40;;;6.20;99.90;;;;;;5051021;28;20041;-71
2023/12/23 10:34:02;;;;;;;1.25;0.70;;;6.00;99.90;;;;;;5033251;28;20045;-71
2023/12/23 10:36:28;;;;;;;1.58;0.93;;;6.00;99.90;;;;;;5048450;28;20037;-71
2023/12/23 10:38:58;;;;;;;1.73;0.75;;;6.20;99.90;;;;;;5051179;28;20051;-71
2023/12/23 10:41:42;;;;;;;1.60;0.80;;;6.20;99.90;;;;;;5033031;28;20056;-71
2023/12/23 10:44:10;;;;;;;1.70;0.80;;;6.20;99.90;;;;;;5031091;28;20614;-71
2023/12/23 10:46:36;;;;;;;1.00;0.77;;;6.00;99.90;;;;;;5051142;28;20574;-71
2023/12/23 10:49:03;;;;;;;1.25;0.80;;;6.20;99.90;;;;;;5033144;28;20068;-71
2023/12/23 10:51:29;;;;;;;1.70;0.90;;;6.20;99.90;;;;;;5051267;28;20076;-71
2023/12/23 10:53:56;;;;;;;2.65;1.42;;;6.10;99.90;;;;;;5051686;28;20431;-71
2023/12/23 10:56:24;;;;;;;1.95;1.10;;;6.40;99.90;;;;;;5033195;28;20086;-71
2023/12/23 10:58:51;;;;;;;1.95;1.15;;;6.10;99.90;;;;;;5051261;28;20459;-71
2023/12/23 11:01:19;;;;;;;2.05;1.30;;;6.20;99.90;;;;;;5033078;28;20037;-71
2023/12/23 11:03:50;;;;;;;2.38;1.50;;;6.30;99.90;;;;;;5050843;28;20048;-71
2023/12/23 11:06:17;;;;;;;2.13;1.30;;;6.20;99.90;;;;;;5051289;28;20033;-71
2023/12/23 11:08:43;;;;;;;2.28;1.42;;;6.30;99.90;;;;;;5051350;28;20029;-71
2023/12/23 11:11:10;;;;;;;2.40;1.27;;;6.10;99.90;;;;;;5036952;28;20053;-71
2023/12/23 11:13:35;;;;;;;1.90;1.30;;;6.30;99.90;;;;;;5037590;28;20041;-71
2023/12/23 11:16:02;;;;;;;2.15;0.80;;;6.40;99.90;;;;;;5037124;28;20401;-71
2023/12/23 11:18:28;;;;;;;3.28;1.10;;;6.40;99.90;;;;;;5037069;28;20045;-71
2023/12/23 11:20:54;;;;;;;1.60;1.02;;;6.20;99.90;;;;;;5055219;28;20040;-71
2023/12/23 11:23:33;;;;;;;3.00;0.88;;;6.10;99.90;;;;;;5055336;28;20044;-71
2023/12/23 11:26:02;;;;;;;1.38;0.88;;;6.40;99.90;;;;;;5054939;28;20080;-71
2023/12/23 11:28:31;;;;;;;2.42;0.90;;;6.20;99.90;;;;;;5054837;28;20043;-71
2023/12/23 11:30:59;;;;;;;4.10;1.10;;;6.40;99.90;;;;;;5036897;28;20048;-70
2023/12/23 11:33:27;;;;;;;1.50;1.00;;;6.30;99.90;;;;;;5054972;28;20063;-71
2023/12/23 11:35:56;;;;;;;1.20;0.73;;;6.40;99.90;;;;;;5054820;28;20044;-71
2023/12/23 11:38:25;;;;;;;2.75;0.90;;;6.20;99.90;;;;;;5036956;28;20139;-71
2023/12/23 11:40:52;;;;;;;1.15;0.70;;;6.30;99.90;;;;;;5037019;28;20138;-71
2023/12/23 11:43:18;;;;;;;1.58;1.08;;;6.50;99.90;;;;;;5036645;28;20037;-70
2023/12/23 11:45:48;;;;;;;1.83;0.70;;;6.40;99.90;;;;;;5054540;28;20484;-71
2023/12/23 11:48:14;;;;;;;1.23;0.70;;;6.40;99.90;;;;;;5054655;28;20041;-71
2023/12/23 11:50:44;;;;;;;1.13;1.00;;;6.30;99.90;;;;;;5054460;28;20048;-71
2023/12/23 11:53:10;;;;;;;1.90;1.30;;;6.40;99.90;;;;;;5036521;28;20516;-71
2023/12/23 11:55:37;;;;;;;2.92;1.27;;;6.70;99.90;;;;;;5054359;28;20041;-71
2023/12/23 11:58:04;;;;;;;2.85;1.55;;;6.50;99.90;;;;;;5050760;28;20057;-70
2023/12/23 12:00:31;;;;;;;1.63;1.10;;;6.60;99.90;;;;;;5027235;28;20036;-71
2023/12/23 12:02:57;;;;;;;1.90;1.20;;;6.40;99.90;;;;;;5043977;28;20037;-71
2023/12/23 12:05:24;;;;;;;2.67;1.45;;;6.40;99.90;;;;;;5048500;28;20390;-71
2023/12/23 12:07:50;;;;;;;1.48;1.35;;;6.40;99.90;;;;;;5035646;28;20404;-71
2023/12/23 12:10:16;;;;;;;3.65;1.70;;;6.60;99.90;;;;;;5053771;28;20032;-71
2023/12/23 12:12:42;;;;;;;2.85;1.80;;;6.60;99.90;;;;;;5054599;28;20041;-71
2023/12/23 12:15:08;;;;;;;2.03;1.60;;;6.80;99.90;;;;;;5054969;28;20399;-71
2023/12/23 12:17:33;;;;;;;2.78;1.75;;;6.70;99.90;;;;;;5036189;28;20037;-71
2023/12/23 12:20:00;;;;;;;2.42;1.58;;;6.70;99.90;;;;;;5054438;28;20033;-70
2023/12/23 12:22:25;;;;;;;2.30;1.50;;;6.60;99.90;;;;;;5054131;28;20032;-71
2023/12/23 12:24:51;;;;;;;3.00;1.90;;;6.70;99.90;;;;;;5055202;28;20385;-73
2023/12/23 12:27:17;;;;;;;2.38;1.70;;;6.80;99.90;;;;;;5037413;28;20044;-73
2023/12/23 12:29:43;;;;;;;2.42;1.48;;;6.60;99.90;;;;;;5054484;28;20044;-73
2023/12/23 12:32:14;;;;;;;1.95;1.33;;;6.60;99.90;;;;;;5036144;28;20048;-73
2023/12/23 12:34:40;;;;;;;2.50;1.40;;;6.50;99.90;;;;;;5054126;28;20032;-74
2023/12/23 12:37:07;;;;;;;1.38;0.98;;;6.80;99.90;;;;;;5053658;28;20117;-74
2023/12/23 12:39:33;;;;;;;1.77;1.00;;;6.70;99.90;;;;;;5053703;28;20373;-74
2023/12/23 12:41:58;;;;;;;2.28;1.10;;;6.60;99.90;;;;;;5054135;28;20174;-74
2023/12/23 12:44:24;;;;;;;2.17;1.00;;;6.50;99.90;;;;;;5053951;28;20090;-74
2023/12/23 12:46:55;;;;;;;1.45;1.25;;;6.60;99.90;;;;;;5053482;28;20040;-73
2023/12/23 12:49:23;;;;;;;1.85;1.10;;;6.80;99.90;;;;;;5035483;28;20048;-74